createdAt,value
2019-04-26T00:01:35.593Z,95492.22
2019-04-26T00:04:09.209Z,95485.12
2019-04-26T00:06:41.780Z,95483.06
2019-04-26T00:09:25.905Z,95479.63
2019-04-26T00:12:25.638Z,95476.69
2019-04-26T00:15:15.013Z,95476.66
2019-04-26T00:17:50.417Z,95475.70
2019-04-26T00:20:22.359Z,95480.64
2019-04-26T00:22:54.393Z,95481.53
2019-04-26T00:25:26.342Z,95478.35
2019-04-26T00:27:58.007Z,95473.16
2019-04-26T00:30:29.902Z,95472.64
2019-04-26T00:33:04.625Z,95469.45
2019-04-26T00:35:46.924Z,95461.24
2019-04-26T00:38:10.028Z,95467.25
2019-04-26T00:40:42.291Z,95455.38
2019-04-26T00:43:14.497Z,95453.28
2019-04-26T00:45:46.640Z,95459.05
2019-04-26T00:48:19.385Z,95460.47
2019-04-26T00:50:53.787Z,95454.08
2019-04-26T00:53:27.253Z,95451.66
2019-04-26T00:56:00.034Z,95446.34
2019-04-26T00:58:33.632Z,95449.81
2019-04-26T01:01:05.809Z,95448.48
2019-04-26T01:03:37.788Z,95442.95
2019-04-26T01:06:11.960Z,95438.45
2019-04-26T01:08:43.376Z,95444.05
2019-04-26T01:11:16.282Z,95445.09
2019-04-26T01:13:48.499Z,95449.00
2019-04-26T01:16:20.450Z,95444.98
2019-04-26T01:18:52.945Z,95449.69
2019-04-26T01:21:27.341Z,95452.27
2019-04-26T01:24:01.820Z,95452.25
2019-04-26T01:26:35.525Z,95447.41
2019-04-26T01:29:09.985Z,95448.95
2019-04-26T01:31:49.087Z,95440.64
2019-04-26T01:34:22.040Z,95433.49
2019-04-26T01:36:56.331Z,95436.88
2019-04-26T01:39:28.124Z,95438.97
2019-04-26T01:42:15.746Z,95444.08
2019-04-26T01:45:05.915Z,95447.22
2019-04-26T01:47:38.654Z,95447.19
2019-04-26T01:50:12.023Z,95446.78
2019-04-26T01:52:45.787Z,95442.45
2019-04-26T01:55:18.371Z,95440.94
2019-04-26T01:57:50.316Z,95444.61
2019-04-26T02:00:41.345Z,95444.84
2019-04-26T02:03:21.561Z,95436.95
2019-04-26T02:05:56.170Z,95434.20
2019-04-26T02:08:28.268Z,95439.50
2019-04-26T02:11:00.217Z,95431.77
2019-04-26T02:13:33.066Z,95426.02
2019-04-26T02:16:05.335Z,95425.47
2019-04-26T02:18:37.431Z,95420.89
2019-04-26T02:21:27.990Z,95420.41
2019-04-26T02:24:11.744Z,95425.92
2019-04-26T02:26:46.762Z,95425.94
2019-04-26T02:29:26.643Z,95431.41
2019-04-26T02:32:04.082Z,95430.77
2019-04-26T02:34:38.394Z,95437.16
2019-04-26T02:37:13.284Z,95436.91
2019-04-26T02:39:45.523Z,95428.20
2019-04-26T02:42:28.673Z,95427.45
2019-04-26T02:45:20.983Z,95429.54
2019-04-26T02:48:15.971Z,95433.88
2019-04-26T02:50:53.792Z,95430.95
2019-04-26T02:54:15.285Z,95430.24
2019-04-26T02:56:49.494Z,95430.67
2019-04-26T02:59:37.734Z,95430.13
2019-04-26T03:02:13.207Z,95434.88
2019-04-26T03:04:47.792Z,95424.19
2019-04-26T03:07:26.827Z,95429.20
2019-04-26T03:10:00.158Z,95434.87
2019-04-26T03:12:35.820Z,95436.20
2019-04-26T03:15:32.069Z,95432.88
2019-04-26T03:18:24.674Z,95433.77
2019-04-26T03:21:01.118Z,95438.27
2019-04-26T03:23:57.003Z,95436.65
2019-04-26T03:26:53.168Z,95444.08
2019-04-26T03:29:53.065Z,95448.77
2019-04-26T03:33:08.318Z,95450.26
2019-04-26T03:36:18.554Z,95448.98
2019-04-26T03:39:27.994Z,95449.58
2019-04-26T03:42:40.147Z,95445.47
2019-04-26T03:45:21.582Z,95440.17
2019-04-26T03:48:21.495Z,95442.91
2019-04-26T03:51:05.716Z,95449.72
2019-04-26T03:53:51.027Z,95444.17
2019-04-26T03:57:02.908Z,95445.42
2019-04-26T04:00:14.178Z,95443.30
2019-04-26T04:03:47.968Z,95439.45
2019-04-26T04:06:26.759Z,95434.86
2019-04-26T04:09:05.132Z,95437.73
2019-04-26T04:11:49.702Z,95447.78
2019-04-26T04:14:44.054Z,95443.62
2019-04-26T04:17:28.422Z,95443.03
2019-04-26T04:20:26.740Z,95447.85
2019-04-26T04:23:28.304Z,95444.55
2019-04-26T04:26:02.605Z,95448.59
2019-04-26T04:29:07.796Z,95454.25
2019-04-26T04:31:45.727Z,95451.38
2019-04-26T04:34:37.519Z,95454.99
2019-04-26T04:37:11.879Z,95453.00
2019-04-26T04:40:19.583Z,95455.36
2019-04-26T04:43:07.297Z,95461.21
2019-04-26T04:46:21.291Z,95462.02
2019-04-26T04:49:22.873Z,95460.35
2019-04-26T04:52:13.806Z,95463.59
2019-04-26T04:55:06.404Z,95468.26
2019-04-26T04:57:38.742Z,95466.31
2019-04-26T05:00:33.144Z,95470.98
2019-04-26T05:03:45.266Z,95467.39
2019-04-26T05:06:31.941Z,95466.30
2019-04-26T05:09:16.862Z,95466.20
2019-04-26T05:12:21.436Z,95469.95
2019-04-26T05:15:54.998Z,95473.58
2019-04-26T05:18:45.230Z,95472.66
2019-04-26T05:21:46.926Z,95461.84
2019-04-26T05:24:41.209Z,95463.22
2019-04-26T05:27:57.183Z,95469.31
2019-04-26T05:31:17.146Z,95469.73
2019-04-26T05:34:42.733Z,95468.86
2019-04-26T05:37:51.048Z,95471.57
2019-04-26T05:41:09.063Z,95470.72
2019-04-26T05:44:15.842Z,95464.17
2019-04-26T05:48:05.355Z,95462.08
2019-04-26T05:51:02.389Z,95459.70
2019-04-26T05:54:15.670Z,95458.91
2019-04-26T05:57:03.846Z,95455.91
2019-04-26T05:59:53.524Z,95459.56
2019-04-26T06:03:20.397Z,95461.47
2019-04-26T06:06:20.243Z,95459.70
2019-04-26T06:09:21.669Z,95454.94
2019-04-26T06:12:05.392Z,95455.89
2019-04-26T06:15:31.520Z,95448.16
2019-04-26T06:18:42.029Z,95445.02
2019-04-26T06:21:39.454Z,95440.20
2019-04-26T06:24:40.165Z,95443.15
2019-04-26T06:27:45.594Z,95441.86
2019-04-26T06:30:22.601Z,95445.34
2019-04-26T06:33:12.320Z,95446.99
2019-04-26T06:35:48.083Z,95442.98
2019-04-26T06:39:24.604Z,95446.19
2019-04-26T06:42:17.857Z,95444.05
2019-04-26T06:45:30.293Z,95442.42
2019-04-26T06:48:17.430Z,95441.04
2019-04-26T06:50:58.390Z,95451.25
2019-04-26T06:54:06.054Z,95444.80
2019-04-26T06:57:33.361Z,95447.20
2019-04-26T07:00:20.238Z,95440.23
2019-04-26T07:03:35.654Z,95437.97
2019-04-26T07:06:08.856Z,95442.05
2019-04-26T07:08:57.587Z,95432.34
2019-04-26T07:12:22.406Z,95429.81
2019-04-26T07:15:27.929Z,95430.50
2019-04-26T07:18:32.022Z,95428.02
2019-04-26T07:21:17.245Z,95418.88
2019-04-26T07:24:55.047Z,95419.04
2019-04-26T07:28:03.324Z,95421.92
2019-04-26T07:30:38.470Z,95419.55
2019-04-26T07:33:35.814Z,95417.61
2019-04-26T07:36:33.626Z,95409.22
2019-04-26T07:39:56.177Z,95407.31
2019-04-26T07:43:01.837Z,95403.52
2019-04-26T07:46:15.386Z,95400.28
2019-04-26T07:49:20.161Z,95397.63
2019-04-26T07:52:37.312Z,95395.06
2019-04-26T07:55:30.895Z,95394.36
2019-04-26T07:58:37.664Z,95390.59
2019-04-26T08:01:45.373Z,95392.47
2019-04-26T08:04:22.974Z,95383.46
2019-04-26T08:07:02.366Z,95390.39
2019-04-26T08:09:37.151Z,95392.61
2019-04-26T08:12:12.245Z,95386.97
2019-04-26T08:15:06.015Z,95393.81
2019-04-26T08:17:57.377Z,95393.45
2019-04-26T08:20:48.217Z,95396.08
2019-04-26T08:23:39.188Z,95394.95
2019-04-26T08:26:03.654Z,95396.10
2019-04-26T08:28:38.048Z,95390.46
2019-04-26T08:31:15.442Z,95391.46
2019-04-26T08:33:54.096Z,95389.73
2019-04-26T08:36:30.363Z,95393.18
2019-04-26T08:39:03.127Z,95390.91
2019-04-26T08:41:39.157Z,95381.26
2019-04-26T08:44:21.400Z,95381.05
2019-04-26T08:47:21.004Z,95380.16
2019-04-26T08:49:55.943Z,95376.72
2019-04-26T08:52:31.387Z,95356.63
2019-04-26T08:55:06.117Z,95363.03
2019-04-26T08:57:42.566Z,95353.63
2019-04-26T09:00:48.245Z,95351.76
2019-04-26T09:03:47.344Z,95352.47
2019-04-26T09:06:42.552Z,95347.78
2019-04-26T09:09:24.590Z,95337.98
2019-04-26T09:12:03.804Z,95336.94
2019-04-26T09:14:35.194Z,95332.17
2019-04-26T09:17:08.189Z,95332.39
2019-04-26T09:19:40.147Z,95330.69
2019-04-26T09:22:17.244Z,95314.94
2019-04-26T09:25:06.119Z,95299.97
2019-04-26T09:27:42.809Z,95299.97
2019-04-26T09:30:33.139Z,95303.96
2019-04-26T09:33:12.743Z,95303.22
2019-04-26T09:35:44.643Z,95305.70
2019-04-26T09:38:16.119Z,95301.03
2019-04-26T09:40:47.949Z,95297.93
2019-04-26T09:43:44.447Z,95295.87
2019-04-26T09:46:34.130Z,95286.01
2019-04-26T09:49:31.083Z,95282.03
2019-04-26T09:52:04.178Z,95270.84
2019-04-26T09:54:36.264Z,95272.25
2019-04-26T09:57:08.345Z,95265.54
2019-04-26T09:59:41.188Z,95265.72
2019-04-26T10:02:14.852Z,95264.86
2019-04-26T10:04:46.308Z,95258.16
2019-04-26T10:07:18.081Z,95261.22
2019-04-26T10:09:51.743Z,95244.09
2019-04-26T10:12:32.508Z,95249.53
2019-04-26T10:15:29.922Z,95246.58
2019-04-26T10:18:01.985Z,95237.55
2019-04-26T10:20:33.843Z,95233.53
2019-04-26T10:23:05.547Z,95231.86
2019-04-26T10:25:37.652Z,95224.31
2019-04-26T10:28:11.795Z,95226.55
2019-04-26T10:30:43.941Z,95217.28
2019-04-26T10:33:15.873Z,95216.41
2019-04-26T10:35:47.597Z,95211.70
2019-04-26T10:38:23.238Z,95216.98
2019-04-26T10:40:52.556Z,95210.73
2019-04-26T10:43:24.606Z,95203.95
2019-04-26T10:45:56.926Z,95209.77
2019-04-26T10:48:28.831Z,95203.52
2019-04-26T10:51:03.180Z,95199.02
2019-04-26T10:53:50.508Z,95196.72
2019-04-26T10:56:46.455Z,95187.36
2019-04-26T10:59:27.976Z,95194.08
2019-04-26T11:02:00.186Z,95191.67
2019-04-26T11:04:37.349Z,95178.33
2019-04-26T11:07:08.366Z,95190.05
2019-04-26T11:09:41.115Z,95182.97
2019-04-26T11:12:13.940Z,95183.42
2019-04-26T11:14:45.618Z,95180.23
2019-04-26T11:17:17.912Z,95180.80
2019-04-26T11:19:49.688Z,95180.28
2019-04-26T11:22:28.995Z,95178.21
2019-04-26T11:24:55.148Z,95177.50
2019-04-26T11:27:26.932Z,95173.52
2019-04-26T11:30:00.021Z,95168.55
2019-04-26T11:32:33.143Z,95168.05
2019-04-26T11:35:10.767Z,95168.27
2019-04-26T11:37:42.643Z,95161.09
2019-04-26T11:40:15.727Z,95170.56
2019-04-26T11:42:47.455Z,95155.68
2019-04-26T11:45:19.351Z,95155.15
2019-04-26T11:47:56.280Z,95152.00
2019-04-26T11:50:24.980Z,95146.67
2019-04-26T11:52:57.123Z,95141.92
2019-04-26T11:55:29.812Z,95144.23
2019-04-26T11:58:02.029Z,95144.30
2019-04-26T12:00:38.925Z,95137.47
2019-04-26T12:03:10.853Z,95132.33
2019-04-26T12:05:51.467Z,95131.17
2019-04-26T12:08:27.450Z,95121.77
2019-04-26T12:10:59.657Z,95120.16
2019-04-26T12:13:31.455Z,95121.05
2019-04-26T12:16:03.571Z,95115.95
2019-04-26T12:18:35.263Z,95111.09
2019-04-26T12:21:07.307Z,95107.73
2019-04-26T12:23:39.615Z,95101.52
2019-04-26T12:26:11.452Z,95101.17
2019-04-26T12:28:43.487Z,95102.72
2019-04-26T12:31:15.627Z,95102.55
2019-04-26T12:33:47.644Z,95095.92
2019-04-26T12:36:19.997Z,95090.28
2019-04-26T12:38:51.842Z,95090.19
2019-04-26T12:41:39.520Z,95082.72
2019-04-26T12:43:59.590Z,95082.29
2019-04-26T12:46:59.391Z,95076.03
2019-04-26T12:49:29.926Z,95073.94
2019-04-26T12:52:01.763Z,95070.37
2019-04-26T12:54:34.399Z,95059.73
2019-04-26T12:57:06.913Z,95057.19
2019-04-26T12:59:44.326Z,95047.83
2019-04-26T13:02:12.214Z,95046.87
2019-04-26T13:04:44.751Z,95041.55
2019-04-26T13:07:23.864Z,95042.00
2019-04-26T13:10:10.468Z,95040.17
2019-04-26T13:12:56.307Z,95042.72
2019-04-26T13:16:09.906Z,95037.61
2019-04-26T13:18:45.421Z,95030.75
2019-04-26T13:21:15.068Z,95019.00
2019-04-26T13:23:48.279Z,95020.39
2019-04-26T13:26:20.118Z,95020.73
2019-04-26T13:28:52.526Z,95023.05
2019-04-26T13:31:31.409Z,95019.13
2019-04-26T13:34:02.734Z,95026.91
2019-04-26T13:36:31.638Z,95021.63
2019-04-26T13:39:03.573Z,95016.55
2019-04-26T13:41:38.631Z,95019.41
2019-04-26T13:44:10.345Z,95022.55
2019-04-26T13:46:58.874Z,95020.93
2019-04-26T13:49:48.295Z,95018.77
2019-04-26T13:52:20.538Z,95011.36
2019-04-26T13:54:55.379Z,95003.31
2019-04-26T13:57:25.486Z,95007.98
2019-04-26T13:59:57.029Z,95000.23
2019-04-26T14:02:29.423Z,95006.13
2019-04-26T14:05:00.858Z,94995.23
2019-04-26T14:07:32.654Z,95003.19
2019-04-26T14:10:05.067Z,95000.18
2019-04-26T14:12:37.337Z,94996.50
2019-04-26T14:15:10.251Z,94990.14
2019-04-26T14:17:42.274Z,94996.56
2019-04-26T14:20:14.810Z,94992.02
2019-04-26T14:23:23.570Z,94986.16
2019-04-26T14:26:16.209Z,94991.31
2019-04-26T14:28:48.224Z,94990.55
2019-04-26T14:31:20.337Z,94983.16
2019-04-26T14:33:52.009Z,94978.05
2019-04-26T14:36:26.845Z,94978.20
2019-04-26T14:39:05.611Z,94986.16
2019-04-26T14:41:30.844Z,94974.76
2019-04-26T14:44:14.640Z,94975.55
2019-04-26T14:46:48.249Z,94977.64
2019-04-26T14:49:09.518Z,94970.02
2019-04-26T14:51:41.356Z,94974.08
2019-04-26T14:54:12.939Z,94970.31
2019-04-26T14:56:52.397Z,94976.57
2019-04-26T14:59:44.398Z,94972.45
2019-04-26T15:02:32.922Z,94965.55
2019-04-26T15:05:26.946Z,94971.30
2019-04-26T15:07:59.603Z,94964.55
2019-04-26T15:10:45.889Z,94961.77
2019-04-26T15:13:20.038Z,94960.98
2019-04-26T15:15:46.301Z,94959.40
2019-04-26T15:18:17.747Z,94964.66
2019-04-26T15:20:49.339Z,94962.63
2019-04-26T15:23:23.866Z,94959.06
2019-04-26T15:25:54.630Z,94962.30
2019-04-26T15:28:26.086Z,94960.80
2019-04-26T15:30:58.039Z,94961.39
2019-04-26T15:33:30.260Z,94956.19
2019-04-26T15:36:02.328Z,94954.94
2019-04-26T15:38:41.364Z,94957.61
2019-04-26T15:41:18.435Z,94954.28
2019-04-26T15:44:02.629Z,94955.67
2019-04-26T15:46:53.813Z,94954.98
2019-04-26T15:49:44.143Z,94954.98
2019-04-26T15:52:16.183Z,94955.16
2019-04-26T15:54:48.297Z,94949.63
2019-04-26T15:57:20.330Z,94949.63
2019-04-26T15:59:54.345Z,94951.25
2019-04-26T16:02:26.593Z,94946.76
2019-04-26T16:04:58.515Z,94946.15
2019-04-26T16:07:30.555Z,94944.07
2019-04-26T16:10:02.186Z,94940.37
2019-04-26T16:12:34.974Z,94941.89
2019-04-26T16:15:11.419Z,94937.73
2019-04-26T16:17:41.305Z,94934.84
2019-04-26T16:20:13.624Z,94940.33
2019-04-26T16:22:48.922Z,94937.84
2019-04-26T16:25:20.066Z,94936.38
2019-04-26T16:28:10.520Z,94938.88
2019-04-26T16:30:53.192Z,94936.59
2019-04-26T16:33:33.101Z,94944.02
2019-04-26T16:36:05.398Z,94944.48
2019-04-26T16:38:36.273Z,94945.21
2019-04-26T16:41:09.063Z,94940.31
2019-04-26T16:43:52.238Z,94944.09
2019-04-26T16:46:20.056Z,94943.62
2019-04-26T16:48:47.938Z,94946.69
2019-04-26T16:51:23.209Z,94951.55
2019-04-26T16:54:06.668Z,94943.64
2019-04-26T16:56:28.735Z,94947.70
2019-04-26T16:59:03.310Z,94939.09
2019-04-26T17:01:38.125Z,94947.86
2019-04-26T17:04:11.298Z,94948.27
2019-04-26T17:06:44.926Z,94949.95
2019-04-26T17:09:15.392Z,94948.61
2019-04-26T17:11:46.868Z,94944.48
2019-04-26T17:14:18.721Z,94949.66
2019-04-26T17:16:53.547Z,94946.16
2019-04-26T17:19:25.497Z,94952.56
2019-04-26T17:22:10.197Z,94956.97
2019-04-26T17:25:24.409Z,94959.59
2019-04-26T17:27:54.143Z,94958.13
2019-04-26T17:30:26.614Z,94957.31
2019-04-26T17:32:58.461Z,94963.95
2019-04-26T17:35:30.117Z,94967.49
2019-04-26T17:38:04.985Z,94969.40
2019-04-26T17:40:36.686Z,94970.03
2019-04-26T17:43:09.789Z,94975.53
2019-04-26T17:45:44.241Z,94976.95
2019-04-26T17:48:16.307Z,94978.60
2019-04-26T17:50:48.295Z,94986.47
2019-04-26T17:53:28.685Z,94988.86
2019-04-26T17:55:54.773Z,94992.03
2019-04-26T17:58:30.961Z,94999.37
2019-04-26T18:01:02.859Z,95001.69
2019-04-26T18:03:35.037Z,94996.66
2019-04-26T18:06:09.595Z,95002.98
2019-04-26T18:08:46.064Z,95010.48
2019-04-26T18:11:19.535Z,95019.54
2019-04-26T18:13:51.149Z,95016.33
2019-04-26T18:16:22.436Z,95023.54
2019-04-26T18:19:07.974Z,95030.35
2019-04-26T18:21:56.570Z,95036.12
2019-04-26T18:24:27.538Z,95038.27
2019-04-26T18:27:00.581Z,95031.98
2019-04-26T18:29:33.701Z,95041.92
2019-04-26T18:32:05.634Z,95043.40
2019-04-26T18:34:40.504Z,95052.31
2019-04-26T18:37:10.886Z,95050.88
2019-04-26T18:39:44.349Z,95049.64
2019-04-26T18:42:16.142Z,95055.53
2019-04-26T18:44:48.919Z,95060.38
2019-04-26T18:47:27.616Z,95055.07
2019-04-26T18:49:59.373Z,95063.91
2019-04-26T18:52:33.711Z,95063.30
2019-04-26T18:55:16.329Z,95065.38
2019-04-26T18:57:54.714Z,95056.75
2019-04-26T19:00:29.061Z,95063.88
2019-04-26T19:03:00.878Z,95065.12
2019-04-26T19:05:33.856Z,95069.48
2019-04-26T19:08:07.668Z,95069.48
2019-04-26T19:10:40.613Z,95076.20
2019-04-26T19:13:26.567Z,95079.84
2019-04-26T19:16:23.263Z,95078.53
2019-04-26T19:19:26.354Z,95077.58
2019-04-26T19:22:03.262Z,95072.22
2019-04-26T19:24:34.509Z,95074.88
2019-04-26T19:27:06.811Z,95076.77
2019-04-26T19:29:38.404Z,95074.36
2019-04-26T19:32:11.763Z,95067.19
2019-04-26T19:34:43.709Z,95074.42
2019-04-26T19:37:15.552Z,95073.44
2019-04-26T19:39:47.443Z,95073.27
2019-04-26T19:42:18.933Z,95066.55
2019-04-26T19:45:09.434Z,95074.91
2019-04-26T19:47:44.165Z,95068.53
2019-04-26T19:50:48.736Z,95076.18
2019-04-26T19:53:47.255Z,95069.78
2019-04-26T19:56:27.791Z,95067.47
2019-04-26T19:58:58.947Z,95067.30
2019-04-26T20:01:30.969Z,95069.67
2019-04-26T20:04:02.884Z,95066.87
2019-04-26T20:06:34.884Z,95071.53
2019-04-26T20:09:07.648Z,95063.52
2019-04-26T20:11:42.133Z,95065.12
2019-04-26T20:14:13.008Z,95064.98
2019-04-26T20:16:44.804Z,95074.27
2019-04-26T20:19:18.011Z,95076.54
2019-04-26T20:21:50.595Z,95076.06
2019-04-26T20:24:23.116Z,95072.66
2019-04-26T20:26:54.967Z,95077.58
2019-04-26T20:29:26.493Z,95071.15
2019-04-26T20:32:07.438Z,95066.20
2019-04-26T20:34:39.355Z,95068.02
2019-04-26T20:37:11.174Z,95068.34
2019-04-26T20:39:42.803Z,95066.75
2019-04-26T20:42:14.685Z,95069.42
2019-04-26T20:44:50.977Z,95071.04
2019-04-26T20:47:21.580Z,95069.96
2019-04-26T20:50:00.725Z,95070.52
2019-04-26T20:52:26.954Z,95065.06
2019-04-26T20:54:58.574Z,95067.39
2019-04-26T20:57:31.349Z,95066.66
2019-04-26T21:00:05.492Z,95064.54
2019-04-26T21:02:38.620Z,95068.34
2019-04-26T21:05:14.164Z,95075.62
2019-04-26T21:07:49.205Z,95066.58
2019-04-26T21:10:21.983Z,95066.84
2019-04-26T21:12:54.844Z,95069.83
2019-04-26T21:15:25.522Z,95076.34
2019-04-26T21:18:01.354Z,95072.03
2019-04-26T21:20:32.753Z,95068.97
2019-04-26T21:23:03.917Z,95074.23
2019-04-26T21:25:53.454Z,95074.50
2019-04-26T21:28:38.125Z,95069.42
2019-04-26T21:31:19.104Z,95074.58
2019-04-26T21:34:07.989Z,95066.01
2019-04-26T21:37:03.421Z,95071.86
2019-04-26T21:39:54.367Z,95068.38
2019-04-26T21:42:26.223Z,95066.84
2019-04-26T21:44:58.343Z,95069.31
2019-04-26T21:47:31.962Z,95070.93
2019-04-26T21:50:04.269Z,95069.31
2019-04-26T21:52:35.918Z,95072.59
2019-04-26T21:55:08.865Z,95070.19
2019-04-26T21:57:40.527Z,95081.20
2019-04-26T22:00:43.770Z,95076.89
2019-04-26T22:03:17.459Z,95078.52
2019-04-26T22:05:49.958Z,95078.52
2019-04-26T22:08:25.861Z,95079.84
2019-04-26T22:10:57.633Z,95079.89
2019-04-26T22:13:47.126Z,95080.70
2019-04-26T22:16:34.456Z,95083.92
2019-04-26T22:19:23.982Z,95079.72
2019-04-26T22:22:25.075Z,95079.41
2019-04-26T22:24:57.658Z,95078.66
2019-04-26T22:27:29.265Z,95077.31
2019-04-26T22:30:00.591Z,95069.83
2019-04-26T22:32:33.368Z,95081.09
2019-04-26T22:35:05.019Z,95080.56
2019-04-26T22:37:36.901Z,95077.35
2019-04-26T22:40:10.500Z,95066.12
2019-04-26T22:42:44.008Z,95069.87
2019-04-26T22:45:44.195Z,95070.94
2019-04-26T22:48:25.697Z,95072.57
2019-04-26T22:50:59.483Z,95059.97
2019-04-26T22:53:32.849Z,95053.58
2019-04-26T22:56:05.049Z,95060.00
2019-04-26T22:58:36.889Z,95053.31
2019-04-26T23:01:08.604Z,95044.25
2019-04-26T23:03:41.086Z,95051.20
2019-04-26T23:06:15.329Z,95053.88
2019-04-26T23:08:47.415Z,95055.48
2019-04-26T23:11:19.248Z,95054.98
2019-04-26T23:14:03.372Z,95053.91
2019-04-26T23:17:03.745Z,95049.63
2019-04-26T23:19:54.190Z,95050.70
2019-04-26T23:22:26.339Z,95048.86
2019-04-26T23:24:58.082Z,95046.45
2019-04-26T23:27:29.913Z,95049.39
2019-04-26T23:30:01.352Z,95046.98
2019-04-26T23:32:33.889Z,95045.91
2019-04-26T23:35:06.219Z,95044.84
2019-04-26T23:37:38.187Z,95039.75
2019-04-26T23:40:10.223Z,95028.30
2019-04-26T23:42:43.547Z,95025.88
2019-04-26T23:45:15.148Z,95024.82
2019-04-26T23:47:46.653Z,95025.06
2019-04-26T23:50:18.688Z,95029.36
2019-04-26T23:52:50.471Z,95024.54
2019-04-26T23:55:23.655Z,95024.28
2019-04-26T23:57:55.227Z,95020.83
